sensor_id;sensor_type;location;lat;lon;timestamp;P1;durP1;ratioP1;P2;durP2;ratioP2
36185;SDS011;22228;53.222;7.446;2023-07-29T00:00:34;10.27;;;9.47;;
36185;SDS011;22228;53.222;7.446;2023-07-29T00:02:55;9.73;;;8.90;;
36185;SDS011;22228;53.222;7.446;2023-07-29T00:05:16;13.47;;;10.10;;
36185;SDS011;22228;53.222;7.446;2023-07-29T00:07:38;10.80;;;10.00;;
36185;SDS011;22228;53.222;7.446;2023-07-29T00:09:58;11.07;;;10.07;;
36185;SDS011;22228;53.222;7.446;2023-07-29T00:12:19;10.27;;;9.27;;
36185;SDS011;22228;53.222;7.446;2023-07-29T00:14:39;11.27;;;10.30;;
36185;SDS011;22228;53.222;7.446;2023-07-29T03:00:15;25.47;;;20.60;;
36185;SDS011;22228;53.222;7.446;2023-07-29T03:02:32;23.53;;;20.67;;
36185;SDS011;22228;53.222;7.446;2023-07-29T03:04:53;25.00;;;20.53;;
36185;SDS011;22228;53.222;7.446;2023-07-29T03:07:14;23.87;;;20.30;;
36185;SDS011;22228;53.222;7.446;2023-07-29T03:09:35;25.77;;;20.70;;
36185;SDS011;22228;53.222;7.446;2023-07-29T03:11:56;22.17;;;19.77;;
36185;SDS011;22228;53.222;7.446;2023-07-29T03:16:51;24.20;;;20.17;;
36185;SDS011;22228;53.222;7.446;2023-07-29T03:19:12;24.23;;;20.50;;
36185;SDS011;22228;53.222;7.446;2023-07-29T03:21:33;25.63;;;21.50;;
36185;SDS011;22228;53.222;7.446;2023-07-29T03:23:53;24.23;;;20.67;;
36185;SDS011;22228;53.222;7.446;2023-07-29T03:26:14;24.63;;;21.93;;
36185;SDS011;22228;53.222;7.446;2023-07-29T03:28:35;21.77;;;19.47;;
36185;SDS011;22228;53.222;7.446;2023-07-29T03:30:56;21.40;;;19.17;;
36185;SDS011;22228;53.222;7.446;2023-07-29T03:33:18;24.43;;;19.63;;
36185;SDS011;22228;53.222;7.446;2023-07-29T03:35:39;28.27;;;20.40;;
36185;SDS011;22228;53.222;7.446;2023-07-29T03:38:02;27.97;;;21.50;;
36185;SDS011;22228;53.222;7.446;2023-07-29T03:40:23;29.77;;;22.70;;
36185;SDS011;22228;53.222;7.446;2023-07-29T03:42:44;24.57;;;20.83;;
36185;SDS011;22228;53.222;7.446;2023-07-29T03:45:04;23.70;;;21.10;;
36185;SDS011;22228;53.222;7.446;2023-07-29T03:47:26;26.20;;;21.03;;
36185;SDS011;22228;53.222;7.446;2023-07-29T03:49:49;25.50;;;19.83;;
36185;SDS011;22228;53.222;7.446;2023-07-29T03:52:13;24.77;;;21.07;;
36185;SDS011;22228;53.222;7.446;2023-07-29T03:54:33;24.43;;;20.30;;
36185;SDS011;22228;53.222;7.446;2023-07-29T03:56:53;22.47;;;19.60;;
36185;SDS011;22228;53.222;7.446;2023-07-29T03:59:14;23.83;;;18.93;;
36185;SDS011;22228;53.222;7.446;2023-07-29T04:01:35;21.50;;;19.20;;
36185;SDS011;22228;53.222;7.446;2023-07-29T04:03:55;23.70;;;20.57;;
36185;SDS011;22228;53.222;7.446;2023-07-29T04:06:17;23.23;;;19.90;;
36185;SDS011;22228;53.222;7.446;2023-07-29T04:08:38;27.27;;;19.73;;
36185;SDS011;22228;53.222;7.446;2023-07-29T04:10:59;25.67;;;20.43;;
36185;SDS011;22228;53.222;7.446;2023-07-29T04:13:20;24.47;;;20.57;;
36185;SDS011;22228;53.222;7.446;2023-07-29T04:15:41;24.03;;;20.43;;
36185;SDS011;22228;53.222;7.446;2023-07-29T04:18:01;25.33;;;21.93;;
36185;SDS011;22228;53.222;7.446;2023-07-29T04:20:22;25.57;;;21.30;;
36185;SDS011;22228;53.222;7.446;2023-07-29T04:22:44;24.63;;;21.77;;
36185;SDS011;22228;53.222;7.446;2023-07-29T04:25:05;23.03;;;19.10;;
36185;SDS011;22228;53.222;7.446;2023-07-29T04:27:26;22.60;;;18.67;;
36185;SDS011;22228;53.222;7.446;2023-07-29T04:29:46;24.90;;;18.67;;
36185;SDS011;22228;53.222;7.446;2023-07-29T04:32:07;24.00;;;19.93;;
36185;SDS011;22228;53.222;7.446;2023-07-29T04:34:28;22.27;;;19.20;;
36185;SDS011;22228;53.222;7.446;2023-07-29T04:36:48;25.43;;;20.13;;
36185;SDS011;22228;53.222;7.446;2023-07-29T04:39:11;24.20;;;19.90;;
36185;SDS011;22228;53.222;7.446;2023-07-29T04:41:31;23.33;;;19.80;;
36185;SDS011;22228;53.222;7.446;2023-07-29T04:43:52;27.67;;;20.50;;
36185;SDS011;22228;53.222;7.446;2023-07-29T04:46:12;27.33;;;20.27;;
36185;SDS011;22228;53.222;7.446;2023-07-29T04:48:33;21.27;;;18.10;;
36185;SDS011;22228;53.222;7.446;2023-07-29T04:50:54;23.60;;;20.70;;
36185;SDS011;22228;53.222;7.446;2023-07-29T04:53:14;25.40;;;18.13;;
36185;SDS011;22228;53.222;7.446;2023-07-29T04:55:36;21.77;;;18.97;;
36185;SDS011;22228;53.222;7.446;2023-07-29T04:57:57;20.33;;;17.30;;
36185;SDS011;22228;53.222;7.446;2023-07-29T05:00:19;21.13;;;18.20;;
36185;SDS011;22228;53.222;7.446;2023-07-29T05:02:39;21.63;;;18.33;;
36185;SDS011;22228;53.222;7.446;2023-07-29T05:05:00;19.13;;;17.17;;
36185;SDS011;22228;53.222;7.446;2023-07-29T05:07:21;18.20;;;15.83;;
36185;SDS011;22228;53.222;7.446;2023-07-29T05:09:41;19.60;;;16.90;;
36185;SDS011;22228;53.222;7.446;2023-07-29T05:12:04;21.10;;;16.13;;
36185;SDS011;22228;53.222;7.446;2023-07-29T05:14:26;19.23;;;16.40;;
36185;SDS011;22228;53.222;7.446;2023-07-29T05:16:47;20.53;;;16.40;;
36185;SDS011;22228;53.222;7.446;2023-07-29T05:19:07;17.87;;;16.03;;
36185;SDS011;22228;53.222;7.446;2023-07-29T05:21:28;18.20;;;15.87;;
36185;SDS011;22228;53.222;7.446;2023-07-29T05:23:49;17.33;;;15.53;;
36185;SDS011;22228;53.222;7.446;2023-07-29T05:26:09;16.97;;;14.17;;
36185;SDS011;22228;53.222;7.446;2023-07-29T05:28:31;15.83;;;14.23;;
36185;SDS011;22228;53.222;7.446;2023-07-29T05:30:51;14.97;;;13.47;;
36185;SDS011;22228;53.222;7.446;2023-07-29T05:33:12;14.03;;;12.53;;
36185;SDS011;22228;53.222;7.446;2023-07-29T05:35:32;15.43;;;12.63;;
36185;SDS011;22228;53.222;7.446;2023-07-29T05:37:53;13.27;;;11.63;;
36185;SDS011;22228;53.222;7.446;2023-07-29T05:40:13;12.20;;;11.00;;
36185;SDS011;22228;53.222;7.446;2023-07-29T05:42:34;12.40;;;11.23;;
36185;SDS011;22228;53.222;7.446;2023-07-29T05:44:56;12.57;;;11.23;;
36185;SDS011;22228;53.222;7.446;2023-07-29T05:47:16;12.33;;;11.13;;
36185;SDS011;22228;53.222;7.446;2023-07-29T05:49:37;13.50;;;11.30;;
36185;SDS011;22228;53.222;7.446;2023-07-29T05:51:57;11.83;;;10.63;;
36185;SDS011;22228;53.222;7.446;2023-07-29T05:54:18;11.07;;;9.30;;
36185;SDS011;22228;53.222;7.446;2023-07-29T05:56:38;12.50;;;10.10;;
36185;SDS011;22228;53.222;7.446;2023-07-29T05:59:01;11.00;;;9.90;;
36185;SDS011;22228;53.222;7.446;2023-07-29T06:01:23;9.60;;;8.70;;
36185;SDS011;22228;53.222;7.446;2023-07-29T06:03:45;9.93;;;8.60;;
36185;SDS011;22228;53.222;7.446;2023-07-29T06:06:06;8.70;;;7.90;;
36185;SDS011;22228;53.222;7.446;2023-07-29T06:08:26;9.67;;;8.67;;
36185;SDS011;22228;53.222;7.446;2023-07-29T06:10:47;9.90;;;9.00;;
36185;SDS011;22228;53.222;7.446;2023-07-29T06:13:08;8.90;;;8.00;;
36185;SDS011;22228;53.222;7.446;2023-07-29T06:15:28;8.40;;;7.63;;
36185;SDS011;22228;53.222;7.446;2023-07-29T06:17:51;7.50;;;6.80;;
36185;SDS011;22228;53.222;7.446;2023-07-29T06:20:12;7.93;;;7.23;;
36185;SDS011;22228;53.222;7.446;2023-07-29T06:22:32;8.00;;;7.13;;
36185;SDS011;22228;53.222;7.446;2023-07-29T06:24:53;6.80;;;6.20;;
36185;SDS011;22228;53.222;7.446;2023-07-29T06:27:14;7.47;;;6.07;;
36185;SDS011;22228;53.222;7.446;2023-07-29T06:29:34;6.27;;;5.87;;
36185;SDS011;22228;53.222;7.446;2023-07-29T06:31:55;6.10;;;5.50;;
36185;SDS011;22228;53.222;7.446;2023-07-29T06:34:17;6.67;;;5.80;;
36185;SDS011;22228;53.222;7.446;2023-07-29T06:36:37;6.07;;;5.47;;
36185;SDS011;22228;53.222;7.446;2023-07-29T06:38:58;5.20;;;4.77;;
36185;SDS011;22228;53.222;7.446;2023-07-29T06:41:18;5.17;;;4.77;;
36185;SDS011;22228;53.222;7.446;2023-07-29T06:43:39;5.27;;;4.87;;
36185;SDS011;22228;53.222;7.446;2023-07-29T06:45:59;4.70;;;4.30;;
36185;SDS011;22228;53.222;7.446;2023-07-29T06:48:20;4.03;;;3.60;;
36185;SDS011;22228;53.222;7.446;2023-07-29T06:50:42;4.53;;;4.23;;
36185;SDS011;22228;53.222;7.446;2023-07-29T06:53:02;4.87;;;3.80;;
36185;SDS011;22228;53.222;7.446;2023-07-29T06:55:23;4.17;;;3.80;;
36185;SDS011;22228;53.222;7.446;2023-07-29T06:57:43;6.23;;;3.50;;
36185;SDS011;22228;53.222;7.446;2023-07-29T07:00:04;3.10;;;2.90;;
36185;SDS011;22228;53.222;7.446;2023-07-29T07:02:27;3.90;;;3.53;;
36185;SDS011;22228;53.222;7.446;2023-07-29T07:04:48;5.63;;;3.43;;
36185;SDS011;22228;53.222;7.446;2023-07-29T07:07:10;4.13;;;3.13;;
36185;SDS011;22228;53.222;7.446;2023-07-29T07:09:30;3.53;;;3.07;;
36185;SDS011;22228;53.222;7.446;2023-07-29T07:11:50;3.57;;;3.00;;
36185;SDS011;22228;53.222;7.446;2023-07-29T07:14:12;2.70;;;2.50;;
36185;SDS011;22228;53.222;7.446;2023-07-29T07:16:32;3.40;;;2.60;;
36185;SDS011;22228;53.222;7.446;2023-07-29T07:18:55;4.63;;;2.63;;
36185;SDS011;22228;53.222;7.446;2023-07-29T07:21:16;2.97;;;2.67;;
36185;SDS011;22228;53.222;7.446;2023-07-29T07:23:38;3.67;;;3.30;;
36185;SDS011;22228;53.222;7.446;2023-07-29T07:25:58;5.50;;;2.83;;
36185;SDS011;22228;53.222;7.446;2023-07-29T07:28:19;3.57;;;2.60;;
36185;SDS011;22228;53.222;7.446;2023-07-29T07:30:40;3.40;;;2.50;;
36185;SDS011;22228;53.222;7.446;2023-07-29T07:33:01;3.10;;;2.27;;
36185;SDS011;22228;53.222;7.446;2023-07-29T07:35:21;2.60;;;2.23;;
36185;SDS011;22228;53.222;7.446;2023-07-29T07:37:42;4.67;;;2.27;;
36185;SDS011;22228;53.222;7.446;2023-07-29T07:40:04;2.30;;;2.03;;
36185;SDS011;22228;53.222;7.446;2023-07-29T07:42:25;3.03;;;2.20;;
36185;SDS011;22228;53.222;7.446;2023-07-29T07:44:46;2.50;;;2.00;;
36185;SDS011;22228;53.222;7.446;2023-07-29T07:47:06;3.90;;;2.40;;
36185;SDS011;22228;53.222;7.446;2023-07-29T07:49:27;3.30;;;2.00;;
36185;SDS011;22228;53.222;7.446;2023-07-29T07:51:47;4.17;;;2.53;;
36185;SDS011;22228;53.222;7.446;2023-07-29T07:54:08;3.63;;;1.90;;
36185;SDS011;22228;53.222;7.446;2023-07-29T07:56:30;5.00;;;2.60;;
36185;SDS011;22228;53.222;7.446;2023-07-29T07:58:51;3.83;;;2.90;;
36185;SDS011;22228;53.222;7.446;2023-07-29T08:01:11;3.47;;;2.63;;
36185;SDS011;22228;53.222;7.446;2023-07-29T08:03:32;6.80;;;2.80;;
36185;SDS011;22228;53.222;7.446;2023-07-29T08:05:52;2.97;;;2.50;;
36185;SDS011;22228;53.222;7.446;2023-07-29T08:08:13;4.40;;;2.57;;
36185;SDS011;22228;53.222;7.446;2023-07-29T08:10:34;3.93;;;2.50;;
36185;SDS011;22228;53.222;7.446;2023-07-29T08:12:56;3.27;;;2.13;;
36185;SDS011;22228;53.222;7.446;2023-07-29T08:15:16;3.57;;;2.20;;
36185;SDS011;22228;53.222;7.446;2023-07-29T08:17:37;4.20;;;3.80;;
36185;SDS011;22228;53.222;7.446;2023-07-29T08:19:57;4.40;;;2.37;;
36185;SDS011;22228;53.222;7.446;2023-07-29T08:22:18;3.30;;;2.27;;
36185;SDS011;22228;53.222;7.446;2023-07-29T08:24:39;4.17;;;1.87;;
36185;SDS011;22228;53.222;7.446;2023-07-29T08:27:00;3.40;;;1.87;;
36185;SDS011;22228;53.222;7.446;2023-07-29T08:29:22;2.10;;;1.93;;
36185;SDS011;22228;53.222;7.446;2023-07-29T08:31:42;4.10;;;2.43;;
36185;SDS011;22228;53.222;7.446;2023-07-29T08:34:03;3.77;;;2.07;;
36185;SDS011;22228;53.222;7.446;2023-07-29T08:36:23;3.83;;;2.23;;
36185;SDS011;22228;53.222;7.446;2023-07-29T08:38:44;4.90;;;2.20;;
36185;SDS011;22228;53.222;7.446;2023-07-29T08:41:06;3.80;;;2.10;;
36185;SDS011;22228;53.222;7.446;2023-07-29T08:43:33;4.40;;;2.23;;
36185;SDS011;22228;53.222;7.446;2023-07-29T08:45:56;4.03;;;2.47;;
36185;SDS011;22228;53.222;7.446;2023-07-29T08:48:18;3.67;;;2.33;;
36185;SDS011;22228;53.222;7.446;2023-07-29T08:50:47;2.27;;;2.07;;
36185;SDS011;22228;53.222;7.446;2023-07-29T08:53:08;3.30;;;2.53;;
36185;SDS011;22228;53.222;7.446;2023-07-29T08:55:29;3.67;;;2.90;;
36185;SDS011;22228;53.222;7.446;2023-07-29T08:57:51;2.70;;;2.07;;
36185;SDS011;22228;53.222;7.446;2023-07-29T09:00:11;6.17;;;3.30;;
36185;SDS011;22228;53.222;7.446;2023-07-29T09:02:34;4.37;;;3.23;;
36185;SDS011;22228;53.222;7.446;2023-07-29T09:04:55;5.23;;;3.00;;
36185;SDS011;22228;53.222;7.446;2023-07-29T09:07:15;3.90;;;2.57;;
36185;SDS011;22228;53.222;7.446;2023-07-29T09:09:36;2.70;;;2.50;;
36185;SDS011;22228;53.222;7.446;2023-07-29T09:11:57;4.80;;;3.00;;
36185;SDS011;22228;53.222;7.446;2023-07-29T09:14:17;4.07;;;3.40;;
36185;SDS011;22228;53.222;7.446;2023-07-29T09:16:38;2.50;;;2.30;;
36185;SDS011;22228;53.222;7.446;2023-07-29T09:19:02;3.90;;;3.03;;
36185;SDS011;22228;53.222;7.446;2023-07-29T09:21:23;2.30;;;2.10;;
36185;SDS011;22228;53.222;7.446;2023-07-29T09:23:45;4.87;;;2.43;;
36185;SDS011;22228;53.222;7.446;2023-07-29T09:26:05;3.50;;;3.30;;
36185;SDS011;22228;53.222;7.446;2023-07-29T09:28:26;3.97;;;3.37;;
36185;SDS011;22228;53.222;7.446;2023-07-29T09:30:53;2.93;;;2.57;;
36185;SDS011;22228;53.222;7.446;2023-07-29T09:33:13;3.43;;;3.13;;
36185;SDS011;22228;53.222;7.446;2023-07-29T09:35:35;3.60;;;3.30;;
36185;SDS011;22228;53.222;7.446;2023-07-29T09:37:57;3.73;;;3.47;;
36185;SDS011;22228;53.222;7.446;2023-07-29T09:40:18;3.40;;;3.10;;
36185;SDS011;22228;53.222;7.446;2023-07-29T09:42:39;2.77;;;2.33;;
36185;SDS011;22228;53.222;7.446;2023-07-29T09:44:59;5.13;;;2.90;;
36185;SDS011;22228;53.222;7.446;2023-07-29T09:47:20;2.50;;;2.30;;
36185;SDS011;22228;53.222;7.446;2023-07-29T09:49:41;4.20;;;2.47;;
36185;SDS011;22228;53.222;7.446;2023-07-29T09:52:03;3.83;;;2.23;;
36185;SDS011;22228;53.222;7.446;2023-07-29T09:54:24;3.40;;;3.10;;
36185;SDS011;22228;53.222;7.446;2023-07-29T09:56:45;2.93;;;2.63;;
36185;SDS011;22228;53.222;7.446;2023-07-29T09:59:06;4.10;;;2.97;;
36185;SDS011;22228;53.222;7.446;2023-07-29T10:01:27;3.30;;;2.93;;
36185;SDS011;22228;53.222;7.446;2023-07-29T10:03:48;12.00;;;10.90;;
36185;SDS011;22228;53.222;7.446;2023-07-29T10:06:09;3.07;;;2.87;;
36185;SDS011;22228;53.222;7.446;2023-07-29T10:08:32;3.20;;;2.93;;
36185;SDS011;22228;53.222;7.446;2023-07-29T10:10:54;3.03;;;2.83;;
36185;SDS011;22228;53.222;7.446;2023-07-29T10:13:15;4.43;;;2.73;;
36185;SDS011;22228;53.222;7.446;2023-07-29T10:15:36;4.27;;;2.70;;
36185;SDS011;22228;53.222;7.446;2023-07-29T10:17:57;3.70;;;3.10;;
36185;SDS011;22228;53.222;7.446;2023-07-29T10:20:18;4.00;;;2.70;;
36185;SDS011;22228;53.222;7.446;2023-07-29T10:22:40;4.40;;;2.10;;
36185;SDS011;22228;53.222;7.446;2023-07-29T10:25:04;3.03;;;2.00;;
36185;SDS011;22228;53.222;7.446;2023-07-29T10:27:27;2.50;;;2.30;;
36185;SDS011;22228;53.222;7.446;2023-07-29T10:29:48;2.77;;;2.50;;
36185;SDS011;22228;53.222;7.446;2023-07-29T10:32:10;3.53;;;2.27;;
36185;SDS011;22228;53.222;7.446;2023-07-29T10:34:31;2.20;;;2.00;;
36185;SDS011;22228;53.222;7.446;2023-07-29T10:36:52;2.93;;;2.67;;
36185;SDS011;22228;53.222;7.446;2023-07-29T10:39:14;3.13;;;2.20;;
36185;SDS011;22228;53.222;7.446;2023-07-29T10:47:10;3.93;;;2.30;;
36185;SDS011;22228;53.222;7.446;2023-07-29T10:49:35;2.40;;;2.20;;
36185;SDS011;22228;53.222;7.446;2023-07-29T10:51:55;2.67;;;2.03;;
36185;SDS011;22228;53.222;7.446;2023-07-29T10:54:16;2.40;;;2.13;;
36185;SDS011;22228;53.222;7.446;2023-07-29T10:56:37;5.10;;;2.20;;
36185;SDS011;22228;53.222;7.446;2023-07-29T11:01:57;2.27;;;1.70;;
36185;SDS011;22228;53.222;7.446;2023-07-29T11:04:25;2.57;;;1.47;;
36185;SDS011;22228;53.222;7.446;2023-07-29T11:09:51;1.97;;;1.40;;
36185;SDS011;22228;53.222;7.446;2023-07-29T11:15:03;2.37;;;1.40;;
36185;SDS011;22228;53.222;7.446;2023-07-29T11:17:25;2.50;;;1.30;;
36185;SDS011;22228;53.222;7.446;2023-07-29T11:19:45;3.73;;;1.20;;
36185;SDS011;22228;53.222;7.446;2023-07-29T11:22:07;3.00;;;1.23;;
36185;SDS011;22228;53.222;7.446;2023-07-29T11:24:29;1.43;;;1.10;;
36185;SDS011;22228;53.222;7.446;2023-07-29T11:26:50;1.53;;;0.73;;
36185;SDS011;22228;53.222;7.446;2023-07-29T11:29:11;2.53;;;1.00;;
36185;SDS011;22228;53.222;7.446;2023-07-29T11:31:39;0.80;;;0.80;;
36185;SDS011;22228;53.222;7.446;2023-07-29T11:34:00;3.23;;;1.00;;
36185;SDS011;22228;53.222;7.446;2023-07-29T11:36:26;2.73;;;0.90;;
36185;SDS011;22228;53.222;7.446;2023-07-29T11:38:46;1.17;;;1.00;;
36185;SDS011;22228;53.222;7.446;2023-07-29T11:41:07;2.40;;;0.97;;
36185;SDS011;22228;53.222;7.446;2023-07-29T11:43:27;2.37;;;1.20;;
36185;SDS011;22228;53.222;7.446;2023-07-29T11:45:48;1.57;;;1.10;;
36185;SDS011;22228;53.222;7.446;2023-07-29T11:48:10;2.93;;;1.17;;
36185;SDS011;22228;53.222;7.446;2023-07-29T11:50:30;2.77;;;1.73;;
36185;SDS011;22228;53.222;7.446;2023-07-29T11:52:51;3.20;;;1.80;;
36185;SDS011;22228;53.222;7.446;2023-07-29T11:55:15;3.13;;;1.80;;
36185;SDS011;22228;53.222;7.446;2023-07-29T11:57:36;1.50;;;1.40;;
36185;SDS011;22228;53.222;7.446;2023-07-29T11:59:57;2.07;;;1.10;;
36185;SDS011;22228;53.222;7.446;2023-07-29T12:02:17;4.37;;;1.40;;
36185;SDS011;22228;53.222;7.446;2023-07-29T12:04:41;1.97;;;1.10;;
36185;SDS011;22228;53.222;7.446;2023-07-29T12:07:03;1.27;;;1.10;;
36185;SDS011;22228;53.222;7.446;2023-07-29T12:09:24;4.23;;;1.00;;
36185;SDS011;22228;53.222;7.446;2023-07-29T12:11:46;1.80;;;1.20;;
36185;SDS011;22228;53.222;7.446;2023-07-29T12:14:07;1.63;;;0.90;;
36185;SDS011;22228;53.222;7.446;2023-07-29T12:16:28;1.80;;;0.90;;
36185;SDS011;22228;53.222;7.446;2023-07-29T12:18:53;1.93;;;0.80;;
36185;SDS011;22228;53.222;7.446;2023-07-29T12:21:15;3.10;;;0.70;;
36185;SDS011;22228;53.222;7.446;2023-07-29T12:23:36;0.90;;;0.80;;
36185;SDS011;22228;53.222;7.446;2023-07-29T12:25:57;1.80;;;1.07;;
36185;SDS011;22228;53.222;7.446;2023-07-29T12:28:18;1.73;;;0.90;;
36185;SDS011;22228;53.222;7.446;2023-07-29T12:30:42;1.30;;;1.20;;
36185;SDS011;22228;53.222;7.446;2023-07-29T12:33:03;2.60;;;0.80;;
36185;SDS011;22228;53.222;7.446;2023-07-29T12:35:25;1.43;;;0.90;;
36185;SDS011;22228;53.222;7.446;2023-07-29T12:37:59;2.73;;;0.67;;
36185;SDS011;22228;53.222;7.446;2023-07-29T12:40:20;1.20;;;0.70;;
36185;SDS011;22228;53.222;7.446;2023-07-29T12:42:42;2.03;;;0.60;;
36185;SDS011;22228;53.222;7.446;2023-07-29T12:45:03;0.80;;;0.50;;
36185;SDS011;22228;53.222;7.446;2023-07-29T12:47:24;0.93;;;0.70;;
36185;SDS011;22228;53.222;7.446;2023-07-29T12:49:44;0.70;;;0.60;;
36185;SDS011;22228;53.222;7.446;2023-07-29T12:52:05;3.37;;;0.80;;
36185;SDS011;22228;53.222;7.446;2023-07-29T12:54:28;1.00;;;0.70;;
36185;SDS011;22228;53.222;7.446;2023-07-29T12:56:48;1.33;;;0.80;;
36185;SDS011;22228;53.222;7.446;2023-07-29T12:59:09;1.60;;;0.63;;
36185;SDS011;22228;53.222;7.446;2023-07-29T13:01:30;1.77;;;0.80;;
36185;SDS011;22228;53.222;7.446;2023-07-29T13:03:50;1.50;;;0.80;;
36185;SDS011;22228;53.222;7.446;2023-07-29T13:06:11;1.90;;;0.80;;
36185;SDS011;22228;53.222;7.446;2023-07-29T13:08:31;2.30;;;0.90;;
36185;SDS011;22228;53.222;7.446;2023-07-29T13:10:53;1.30;;;0.93;;
36185;SDS011;22228;53.222;7.446;2023-07-29T13:13:14;2.27;;;1.03;;
36185;SDS011;22228;53.222;7.446;2023-07-29T13:15:35;3.03;;;0.90;;
36185;SDS011;22228;53.222;7.446;2023-07-29T13:17:55;1.70;;;0.80;;
36185;SDS011;22228;53.222;7.446;2023-07-29T13:20:16;1.90;;;0.90;;
36185;SDS011;22228;53.222;7.446;2023-07-29T13:22:36;2.53;;;0.90;;
36185;SDS011;22228;53.222;7.446;2023-07-29T13:24:57;2.47;;;1.03;;
36185;SDS011;22228;53.222;7.446;2023-07-29T13:27:19;1.80;;;1.10;;
36185;SDS011;22228;53.222;7.446;2023-07-29T13:29:41;2.80;;;1.10;;
36185;SDS011;22228;53.222;7.446;2023-07-29T13:32:02;2.03;;;1.20;;
36185;SDS011;22228;53.222;7.446;2023-07-29T13:34:23;2.27;;;1.10;;
36185;SDS011;22228;53.222;7.446;2023-07-29T13:36:43;3.40;;;1.10;;
36185;SDS011;22228;53.222;7.446;2023-07-29T13:39:04;1.47;;;1.20;;
36185;SDS011;22228;53.222;7.446;2023-07-29T13:41:24;1.57;;;1.10;;
36185;SDS011;22228;53.222;7.446;2023-07-29T13:43:46;2.23;;;1.30;;
36185;SDS011;22228;53.222;7.446;2023-07-29T13:46:06;1.87;;;1.50;;
36185;SDS011;22228;53.222;7.446;2023-07-29T13:48:27;2.03;;;1.40;;
36185;SDS011;22228;53.222;7.446;2023-07-29T13:50:47;5.23;;;1.40;;
36185;SDS011;22228;53.222;7.446;2023-07-29T13:53:08;1.67;;;1.50;;
36185;SDS011;22228;53.222;7.446;2023-07-29T13:55:28;1.80;;;1.40;;
36185;SDS011;22228;53.222;7.446;2023-07-29T13:57:49;3.47;;;1.47;;
36185;SDS011;22228;53.222;7.446;2023-07-29T14:00:11;2.27;;;1.40;;
36185;SDS011;22228;53.222;7.446;2023-07-29T14:02:32;2.93;;;1.50;;
36185;SDS011;22228;53.222;7.446;2023-07-29T14:04:53;2.90;;;1.33;;
36185;SDS011;22228;53.222;7.446;2023-07-29T14:07:13;2.67;;;1.30;;
36185;SDS011;22228;53.222;7.446;2023-07-29T14:09:34;1.27;;;1.17;;
36185;SDS011;22228;53.222;7.446;2023-07-29T14:11:56;3.20;;;1.10;;
36185;SDS011;22228;53.222;7.446;2023-07-29T14:14:16;1.67;;;1.50;;
36185;SDS011;22228;53.222;7.446;2023-07-29T14:16:38;3.30;;;1.43;;
36185;SDS011;22228;53.222;7.446;2023-07-29T14:18:59;1.50;;;1.40;;
36185;SDS011;22228;53.222;7.446;2023-07-29T14:21:19;1.70;;;1.20;;
36185;SDS011;22228;53.222;7.446;2023-07-29T14:23:40;1.47;;;1.30;;
36185;SDS011;22228;53.222;7.446;2023-07-29T14:26:00;1.77;;;1.10;;
36185;SDS011;22228;53.222;7.446;2023-07-29T14:28:21;1.93;;;1.40;;
36185;SDS011;22228;53.222;7.446;2023-07-29T14:30:41;3.33;;;1.37;;
36185;SDS011;22228;53.222;7.446;2023-07-29T14:33:03;3.07;;;1.53;;
36185;SDS011;22228;53.222;7.446;2023-07-29T14:35:24;1.90;;;1.60;;
36185;SDS011;22228;53.222;7.446;2023-07-29T14:37:44;1.27;;;1.17;;
36185;SDS011;22228;53.222;7.446;2023-07-29T14:40:05;2.47;;;1.20;;
36185;SDS011;22228;53.222;7.446;2023-07-29T14:42:26;1.53;;;1.10;;
36185;SDS011;22228;53.222;7.446;2023-07-29T14:44:47;2.50;;;1.20;;
36185;SDS011;22228;53.222;7.446;2023-07-29T14:47:08;3.00;;;1.30;;
36185;SDS011;22228;53.222;7.446;2023-07-29T14:49:30;2.53;;;1.20;;
36185;SDS011;22228;53.222;7.446;2023-07-29T14:51:50;2.20;;;1.10;;
36185;SDS011;22228;53.222;7.446;2023-07-29T14:54:11;2.57;;;1.23;;
36185;SDS011;22228;53.222;7.446;2023-07-29T14:56:31;3.50;;;1.40;;
36185;SDS011;22228;53.222;7.446;2023-07-29T14:58:52;3.33;;;1.40;;
36185;SDS011;22228;53.222;7.446;2023-07-29T15:01:13;2.07;;;1.20;;
36185;SDS011;22228;53.222;7.446;2023-07-29T15:03:33;2.50;;;1.30;;
36185;SDS011;22228;53.222;7.446;2023-07-29T15:05:56;3.07;;;1.10;;
36185;SDS011;22228;53.222;7.446;2023-07-29T15:08:18;5.20;;;1.50;;
36185;SDS011;22228;53.222;7.446;2023-07-29T15:10:38;3.50;;;1.17;;
36185;SDS011;22228;53.222;7.446;2023-07-29T15:12:59;2.87;;;1.20;;
36185;SDS011;22228;53.222;7.446;2023-07-29T15:15:19;1.90;;;1.00;;
36185;SDS011;22228;53.222;7.446;2023-07-29T15:17:40;2.03;;;1.00;;
36185;SDS011;22228;53.222;7.446;2023-07-29T15:20:01;1.63;;;1.00;;
36185;SDS011;22228;53.222;7.446;2023-07-29T15:22:23;3.30;;;1.00;;
36185;SDS011;22228;53.222;7.446;2023-07-29T15:24:43;1.50;;;0.97;;
36185;SDS011;22228;53.222;7.446;2023-07-29T15:27:05;4.60;;;1.10;;
36185;SDS011;22228;53.222;7.446;2023-07-29T15:29:26;1.43;;;1.00;;
36185;SDS011;22228;53.222;7.446;2023-07-29T15:31:46;1.20;;;0.87;;
36185;SDS011;22228;53.222;7.446;2023-07-29T15:34:06;1.07;;;0.83;;
36185;SDS011;22228;53.222;7.446;2023-07-29T15:36:27;1.47;;;0.97;;
36185;SDS011;22228;53.222;7.446;2023-07-29T15:38:49;2.53;;;0.80;;
36185;SDS011;22228;53.222;7.446;2023-07-29T15:41:09;3.33;;;1.10;;
36185;SDS011;22228;53.222;7.446;2023-07-29T15:43:30;1.60;;;0.70;;
36185;SDS011;22228;53.222;7.446;2023-07-29T15:45:50;1.43;;;0.80;;
36185;SDS011;22228;53.222;7.446;2023-07-29T15:48:11;2.07;;;0.87;;
36185;SDS011;22228;53.222;7.446;2023-07-29T15:50:31;2.30;;;0.73;;
36185;SDS011;22228;53.222;7.446;2023-07-29T15:52:51;1.43;;;0.73;;
36185;SDS011;22228;53.222;7.446;2023-07-29T15:55:13;1.30;;;0.90;;
36185;SDS011;22228;53.222;7.446;2023-07-29T15:57:34;1.80;;;0.90;;
36185;SDS011;22228;53.222;7.446;2023-07-29T15:59:55;1.57;;;0.83;;
36185;SDS011;22228;53.222;7.446;2023-07-29T16:02:34;3.03;;;1.00;;
36185;SDS011;22228;53.222;7.446;2023-07-29T16:04:54;6.00;;;4.93;;
36185;SDS011;22228;53.222;7.446;2023-07-29T16:07:15;1.67;;;0.90;;
36185;SDS011;22228;53.222;7.446;2023-07-29T16:09:35;2.97;;;1.13;;
36185;SDS011;22228;53.222;7.446;2023-07-29T16:11:57;0.90;;;0.80;;
36185;SDS011;22228;53.222;7.446;2023-07-29T16:14:17;1.40;;;1.30;;
36185;SDS011;22228;53.222;7.446;2023-07-29T16:16:38;1.80;;;0.90;;
36185;SDS011;22228;53.222;7.446;2023-07-29T16:18:58;2.43;;;1.00;;
36185;SDS011;22228;53.222;7.446;2023-07-29T16:21:19;1.70;;;0.80;;
36185;SDS011;22228;53.222;7.446;2023-07-29T16:23:39;1.67;;;0.80;;
36185;SDS011;22228;53.222;7.446;2023-07-29T16:25:59;2.33;;;0.80;;
36185;SDS011;22228;53.222;7.446;2023-07-29T16:28:21;1.57;;;0.80;;
36185;SDS011;22228;53.222;7.446;2023-07-29T16:30:42;0.97;;;0.90;;
36185;SDS011;22228;53.222;7.446;2023-07-29T16:33:03;3.80;;;1.00;;
36185;SDS011;22228;53.222;7.446;2023-07-29T16:35:23;1.00;;;0.87;;
36185;SDS011;22228;53.222;7.446;2023-07-29T16:37:44;1.47;;;0.80;;
36185;SDS011;22228;53.222;7.446;2023-07-29T16:40:05;1.03;;;0.80;;
36185;SDS011;22228;53.222;7.446;2023-07-29T16:42:26;1.23;;;0.80;;
36185;SDS011;22228;53.222;7.446;2023-07-29T16:44:48;1.43;;;0.90;;
36185;SDS011;22228;53.222;7.446;2023-07-29T16:47:08;1.27;;;0.70;;
36185;SDS011;22228;53.222;7.446;2023-07-29T16:49:29;3.63;;;0.80;;
36185;SDS011;22228;53.222;7.446;2023-07-29T16:51:49;1.80;;;0.80;;
36185;SDS011;22228;53.222;7.446;2023-07-29T16:54:10;1.73;;;0.80;;
36185;SDS011;22228;53.222;7.446;2023-07-29T16:56:32;2.97;;;0.80;;
36185;SDS011;22228;53.222;7.446;2023-07-29T16:58:52;1.27;;;0.63;;
36185;SDS011;22228;53.222;7.446;2023-07-29T17:01:14;3.30;;;3.00;;
36185;SDS011;22228;53.222;7.446;2023-07-29T17:03:35;1.60;;;1.00;;